This is the latest recevied weather packets stored in our database for station/object KB3KBR-WX. If no packets are shown the sender has not sent any weather packets the latest 10 day(s).
| Time | Temp. | Humidity | Pressure | Rain* | Wind** | Luminosity | Snow |
|---|---|---|---|---|---|---|---|
| 1787866018 | 25.56° C | 71% | 1011.4 hPa | 0 mm | - | - | - |
| 1787865689 | 26.11° C | 70% | 1011.5 hPa | 0 mm | - | - | - |
| 1787865359 | 26.11° C | 71% | 1011.5 hPa | 0 mm | - | - | - |
| 1787865029 | 26.11° C | 71% | 1011.5 hPa | 0 mm | - | - | - |
| 1787864729 | 26.11° C | 71% | 1011.6 hPa | 0 mm | - | - | - |
| 1787864429 | 25.56° C | 74% | 1011.5 hPa | 0 mm | - | - | - |
| 1787864099 | 25° C | 76% | 1011.5 hPa | 0 mm | - | - | - |
| 1787863799 | 25° C | 76% | 1011.5 hPa | 0 mm | - | - | - |
| 1787863499 | 25° C | 76% | 1011.6 hPa | 0 mm | - | - | - |
| 1787863199 | 25° C | 76% | 1011.6 hPa | 0 mm | - | - | - |
| 1787862869 | 25° C | 75% | 1011.5 hPa | 0 mm | - | - | - |
| 1787862539 | 25° C | 73% | 1011.6 hPa | 0 mm | - | - | - |
| 1787862209 | 25.56° C | 72% | 1011.6 hPa | 0 mm | - | - | - |
| 1787861909 | 25.56° C | 71% | 1011.6 hPa | 0 mm | - | - | - |
| 1787861609 | 25.56° C | 70% | 1011.6 hPa | 0 mm | - | - | - |
| 1787861279 | 26.11° C | 69% | 1011.5 hPa | 0 mm | - | - | - |
| 1787860979 | 26.11° C | 70% | 1011.6 hPa | 0 mm | - | - | - |
| 1787860679 | 26.11° C | 69% | 1011.6 hPa | 0 mm | - | - | - |
| 1787860049 | 25.56° C | 70% | 1011.8 hPa | 0 mm | - | - | - |
| 1787859719 | 25.56° C | 69% | 1011.9 hPa | 0 mm | - | - | - |
| 1787859419 | 26.11° C | 70% | 1011.8 hPa | 0 mm | - | - | - |
| 1787859118 | 26.67° C | 67% | 1011.8 hPa | 0 mm | - | - | - |
| 1787858789 | 27.22° C | 65% | 1011.8 hPa | 0 mm | - | - | - |
| 1787858489 | 27.22° C | 68% | 1011.8 hPa | 0 mm | - | - | - |
| 1787858159 | 26.67° C | 68% | 1011.9 hPa | 0 mm | - | - | - |
* Rain latest hour (hover to see other rain measurements)
** Current wind speed in m/s (hover to see current wind gust speed)